sensor_id;sensor_type;location;lat;lon;timestamp;temperature;humidity
65472;DHT22;52068;50.710;14.492;2023-03-13T00:01:01;24.52;34.88
65472;DHT22;52068;50.710;14.492;2023-03-13T00:03:27;24.37;35.36
65472;DHT22;52068;50.710;14.492;2023-03-13T00:05:55;24.23;35.51
65472;DHT22;52068;50.710;14.492;2023-03-13T00:08:21;24.32;35.38
65472;DHT22;52068;50.710;14.492;2023-03-13T00:10:46;24.61;34.89
65472;DHT22;52068;50.710;14.492;2023-03-13T00:13:11;25.08;34.16
65472;DHT22;52068;50.710;14.492;2023-03-13T00:15:37;25.58;33.41
65472;DHT22;52068;50.710;14.492;2023-03-13T00:18:02;25.93;32.86
65472;DHT22;52068;50.710;14.492;2023-03-13T00:20:28;26.10;32.53
65472;DHT22;52068;50.710;14.492;2023-03-13T00:22:53;26.17;32.41
65472;DHT22;52068;50.710;14.492;2023-03-13T00:25:18;26.16;32.50
65472;DHT22;52068;50.710;14.492;2023-03-13T00:27:43;26.10;32.51
65472;DHT22;52068;50.710;14.492;2023-03-13T00:30:09;25.97;32.70
65472;DHT22;52068;50.710;14.492;2023-03-13T00:32:39;25.83;32.91
65472;DHT22;52068;50.710;14.492;2023-03-13T00:35:04;25.66;33.33
65472;DHT22;52068;50.710;14.492;2023-03-13T00:37:30;25.50;33.60
65472;DHT22;52068;50.710;14.492;2023-03-13T00:39:56;25.35;33.88
65472;DHT22;52068;50.710;14.492;2023-03-13T00:42:21;25.21;34.04
65472;DHT22;52068;50.710;14.492;2023-03-13T00:44:46;25.04;34.23
65472;DHT22;52068;50.710;14.492;2023-03-13T00:47:11;24.90;34.46
65472;DHT22;52068;50.710;14.492;2023-03-13T00:49:37;24.73;34.78
65472;DHT22;52068;50.710;14.492;2023-03-13T00:52:02;24.60;35.05
65472;DHT22;52068;50.710;14.492;2023-03-13T00:54:27;24.46;35.32
65472;DHT22;52068;50.710;14.492;2023-03-13T00:56:52;24.30;35.49
65472;DHT22;52068;50.710;14.492;2023-03-13T00:59:18;24.36;35.37
65472;DHT22;52068;50.710;14.492;2023-03-13T01:01:43;24.87;34.66
65472;DHT22;52068;50.710;14.492;2023-03-13T01:04:09;25.66;33.69
65472;DHT22;52068;50.710;14.492;2023-03-13T01:06:36;26.61;32.09
65472;DHT22;52068;50.710;14.492;2023-03-13T01:09:02;27.51;30.68
65472;DHT22;52068;50.710;14.492;2023-03-13T01:11:29;28.24;29.65
65472;DHT22;52068;50.710;14.492;2023-03-13T01:13:59;28.66;28.99
65472;DHT22;52068;50.710;14.492;2023-03-13T01:16:24;28.83;28.86
65472;DHT22;52068;50.710;14.492;2023-03-13T01:18:54;28.77;28.97
65472;DHT22;52068;50.710;14.492;2023-03-13T01:21:20;28.62;29.08
65472;DHT22;52068;50.710;14.492;2023-03-13T01:23:46;28.35;29.47
65472;DHT22;52068;50.710;14.492;2023-03-13T01:26:11;28.08;29.79
65472;DHT22;52068;50.710;14.492;2023-03-13T01:28:37;27.73;30.31
65472;DHT22;52068;50.710;14.492;2023-03-13T01:31:35;27.39;30.79
65472;DHT22;52068;50.710;14.492;2023-03-13T01:33:54;26.99;31.37
65472;DHT22;52068;50.710;14.492;2023-03-13T01:36:20;26.67;31.98
65472;DHT22;52068;50.710;14.492;2023-03-13T01:38:49;26.38;32.44
65472;DHT22;52068;50.710;14.492;2023-03-13T01:41:15;26.14;32.97
65472;DHT22;52068;50.710;14.492;2023-03-13T01:43:40;25.87;33.30
65472;DHT22;52068;50.710;14.492;2023-03-13T01:51:17;25.21;34.21
65472;DHT22;52068;50.710;14.492;2023-03-13T01:53:45;25.01;34.56
65472;DHT22;52068;50.710;14.492;2023-03-13T01:56:13;24.81;34.99
65472;DHT22;52068;50.710;14.492;2023-03-13T01:58:41;24.67;35.17
65472;DHT22;52068;50.710;14.492;2023-03-13T02:01:06;24.81;34.84
65472;DHT22;52068;50.710;14.492;2023-03-13T02:03:32;25.31;34.21
65472;DHT22;52068;50.710;14.492;2023-03-13T02:05:58;26.03;33.30
65472;DHT22;52068;50.710;14.492;2023-03-13T02:08:31;26.88;31.87
65472;DHT22;52068;50.710;14.492;2023-03-13T02:11:03;27.64;30.78
65472;DHT22;52068;50.710;14.492;2023-03-13T02:13:31;28.11;30.01
65472;DHT22;52068;50.710;14.492;2023-03-13T02:15:56;28.28;29.76
65472;DHT22;52068;50.710;14.492;2023-03-13T02:18:22;28.31;29.71
65472;DHT22;52068;50.710;14.492;2023-03-13T02:20:47;28.21;29.66
65472;DHT22;52068;50.710;14.492;2023-03-13T02:25:40;27.76;30.20
65472;DHT22;52068;50.710;14.492;2023-03-13T02:28:08;27.42;30.56
65472;DHT22;52068;50.710;14.492;2023-03-13T02:30:33;27.10;31.12
65472;DHT22;52068;50.710;14.492;2023-03-13T02:32:59;26.79;31.59
65472;DHT22;52068;50.710;14.492;2023-03-13T02:35:25;26.49;31.98
65472;DHT22;52068;50.710;14.492;2023-03-13T02:37:51;26.24;32.39
65472;DHT22;52068;50.710;14.492;2023-03-13T02:40:21;26.00;32.85
65472;DHT22;52068;50.710;14.492;2023-03-13T02:42:48;25.75;33.33
65472;DHT22;52068;50.710;14.492;2023-03-13T02:45:15;25.52;33.70
65472;DHT22;52068;50.710;14.492;2023-03-13T02:47:41;25.32;33.98
65472;DHT22;52068;50.710;14.492;2023-03-13T02:50:06;25.12;34.22
65472;DHT22;52068;50.710;14.492;2023-03-13T02:52:32;24.96;34.30
65472;DHT22;52068;50.710;14.492;2023-03-13T02:55:04;24.77;34.68
65472;DHT22;52068;50.710;14.492;2023-03-13T02:57:30;24.60;34.89
65472;DHT22;52068;50.710;14.492;2023-03-13T02:59:56;24.61;34.79
65472;DHT22;52068;50.710;14.492;2023-03-13T03:02:21;24.92;34.46
65472;DHT22;52068;50.710;14.492;2023-03-13T03:04:46;25.39;33.79
65472;DHT22;52068;50.710;14.492;2023-03-13T03:07:12;25.97;32.94
65472;DHT22;52068;50.710;14.492;2023-03-13T03:09:37;26.65;31.89
65472;DHT22;52068;50.710;14.492;2023-03-13T03:12:02;27.03;31.20
65472;DHT22;52068;50.710;14.492;2023-03-13T03:14:28;27.32;30.79
65472;DHT22;52068;50.710;14.492;2023-03-13T03:16:53;27.36;30.85
65472;DHT22;52068;50.710;14.492;2023-03-13T03:19:18;27.33;30.74
65472;DHT22;52068;50.710;14.492;2023-03-13T03:21:43;27.13;30.99
65472;DHT22;52068;50.710;14.492;2023-03-13T03:24:09;26.91;31.32
65472;DHT22;52068;50.710;14.492;2023-03-13T03:26:34;26.64;31.78
65472;DHT22;52068;50.710;14.492;2023-03-13T03:28:59;26.41;31.96
65472;DHT22;52068;50.710;14.492;2023-03-13T03:31:25;26.17;32.37
65472;DHT22;52068;50.710;14.492;2023-03-13T03:33:50;25.96;32.67
65472;DHT22;52068;50.710;14.492;2023-03-13T03:36:16;25.75;33.03
65472;DHT22;52068;50.710;14.492;2023-03-13T03:38:42;25.55;33.34
65472;DHT22;52068;50.710;14.492;2023-03-13T03:41:08;25.32;33.72
65472;DHT22;52068;50.710;14.492;2023-03-13T03:43:33;25.12;34.07
65472;DHT22;52068;50.710;14.492;2023-03-13T03:45:59;24.94;34.40
65472;DHT22;52068;50.710;14.492;2023-03-13T03:48:24;24.77;34.52
65472;DHT22;52068;50.710;14.492;2023-03-13T03:50:49;24.60;34.82
65472;DHT22;52068;50.710;14.492;2023-03-13T03:53:14;24.43;35.11
65472;DHT22;52068;50.710;14.492;2023-03-13T03:55:40;24.37;35.27
65472;DHT22;52068;50.710;14.492;2023-03-13T03:58:05;24.54;34.86
65472;DHT22;52068;50.710;14.492;2023-03-13T04:00:30;24.94;34.30
65472;DHT22;52068;50.710;14.492;2023-03-13T04:02:56;25.46;33.60
65472;DHT22;52068;50.710;14.492;2023-03-13T04:05:21;25.92;32.86
65472;DHT22;52068;50.710;14.492;2023-03-13T04:07:47;26.20;32.43
65472;DHT22;52068;50.710;14.492;2023-03-13T04:10:12;26.35;32.10
65472;DHT22;52068;50.710;14.492;2023-03-13T04:12:38;26.41;31.87
65472;DHT22;52068;50.710;14.492;2023-03-13T04:15:03;26.34;31.77
65472;DHT22;52068;50.710;14.492;2023-03-13T04:17:28;26.25;32.11
65472;DHT22;52068;50.710;14.492;2023-03-13T04:19:54;26.03;32.60
65472;DHT22;52068;50.710;14.492;2023-03-13T04:22:19;25.86;32.90
65472;DHT22;52068;50.710;14.492;2023-03-13T04:24:44;25.69;33.15
65472;DHT22;52068;50.710;14.492;2023-03-13T04:27:09;25.49;33.36
65472;DHT22;52068;50.710;14.492;2023-03-13T04:29:35;25.29;33.63
65472;DHT22;52068;50.710;14.492;2023-03-13T04:32:00;25.15;33.84
65472;DHT22;52068;50.710;14.492;2023-03-13T04:34:26;24.98;34.24
65472;DHT22;52068;50.710;14.492;2023-03-13T04:36:51;24.83;34.57
65472;DHT22;52068;50.710;14.492;2023-03-13T04:39:16;24.70;34.82
65472;DHT22;52068;50.710;14.492;2023-03-13T04:41:42;24.56;35.19
65472;DHT22;52068;50.710;14.492;2023-03-13T04:44:07;24.40;35.47
65472;DHT22;52068;50.710;14.492;2023-03-13T04:46:32;24.23;35.88
65472;DHT22;52068;50.710;14.492;2023-03-13T04:48:57;24.13;36.17
65472;DHT22;52068;50.710;14.492;2023-03-13T04:51:23;24.16;36.33
65472;DHT22;52068;50.710;14.492;2023-03-13T04:53:48;24.53;35.40
65472;DHT22;52068;50.710;14.492;2023-03-13T04:56:16;25.14;34.68
65472;DHT22;52068;50.710;14.492;2023-03-13T04:58:44;25.83;33.51
65472;DHT22;52068;50.710;14.492;2023-03-13T05:01:10;26.45;32.40
65472;DHT22;52068;50.710;14.492;2023-03-13T05:03:35;26.92;31.65
65472;DHT22;52068;50.710;14.492;2023-03-13T05:06:00;27.17;31.23
65472;DHT22;52068;50.710;14.492;2023-03-13T05:08:25;27.22;31.07
65472;DHT22;52068;50.710;14.492;2023-03-13T05:10:51;27.15;31.01
65472;DHT22;52068;50.710;14.492;2023-03-13T05:13:16;27.06;30.96
65472;DHT22;52068;50.710;14.492;2023-03-13T05:15:41;26.85;31.16
65472;DHT22;52068;50.710;14.492;2023-03-13T05:18:06;26.59;31.82
65472;DHT22;52068;50.710;14.492;2023-03-13T05:20:32;26.31;32.19
65472;DHT22;52068;50.710;14.492;2023-03-13T05:22:57;26.08;32.40
65472;DHT22;52068;50.710;14.492;2023-03-13T05:25:22;25.84;32.76
65472;DHT22;52068;50.710;14.492;2023-03-13T05:27:47;25.63;33.22
65472;DHT22;52068;50.710;14.492;2023-03-13T05:30:13;25.43;33.40
65472;DHT22;52068;50.710;14.492;2023-03-13T05:32:38;25.22;33.75
65472;DHT22;52068;50.710;14.492;2023-03-13T05:35:03;25.03;34.20
65472;DHT22;52068;50.710;14.492;2023-03-13T05:37:29;24.87;34.53
65472;DHT22;52068;50.710;14.492;2023-03-13T05:39:54;24.71;34.15
65472;DHT22;52068;50.710;14.492;2023-03-13T05:42:19;24.56;33.96
65472;DHT22;52068;50.710;14.492;2023-03-13T05:44:45;24.41;33.78
65472;DHT22;52068;50.710;14.492;2023-03-13T05:47:10;24.27;33.61
65472;DHT22;52068;50.710;14.492;2023-03-13T05:49:35;24.29;33.45
65472;DHT22;52068;50.710;14.492;2023-03-13T05:52:00;24.67;32.75
65472;DHT22;52068;50.710;14.492;2023-03-13T05:54:26;25.32;31.59
65472;DHT22;52068;50.710;14.492;2023-03-13T05:56:51;26.16;30.21
65472;DHT22;52068;50.710;14.492;2023-03-13T05:59:16;26.95;29.04
65472;DHT22;52068;50.710;14.492;2023-03-13T06:01:41;27.71;27.92
65472;DHT22;52068;50.710;14.492;2023-03-13T06:04:07;28.34;27.42
65472;DHT22;52068;50.710;14.492;2023-03-13T06:06:32;28.87;26.95
65472;DHT22;52068;50.710;14.492;2023-03-13T06:08:57;29.17;26.78
65472;DHT22;52068;50.710;14.492;2023-03-13T06:11:22;29.24;26.67
65472;DHT22;52068;50.710;14.492;2023-03-13T06:13:49;29.24;26.71
65472;DHT22;52068;50.710;14.492;2023-03-13T06:16:15;29.06;27.05
65472;DHT22;52068;50.710;14.492;2023-03-13T06:18:40;28.79;27.54
65472;DHT22;52068;50.710;14.492;2023-03-13T06:21:05;28.44;27.99
65472;DHT22;52068;50.710;14.492;2023-03-13T06:23:31;28.16;28.43
65472;DHT22;52068;50.710;14.492;2023-03-13T06:25:57;27.93;28.75
65472;DHT22;52068;50.710;14.492;2023-03-13T06:28:22;27.63;29.18
65472;DHT22;52068;50.710;14.492;2023-03-13T06:30:47;27.32;29.65
65472;DHT22;52068;50.710;14.492;2023-03-13T06:33:13;27.07;29.85
65472;DHT22;52068;50.710;14.492;2023-03-13T06:35:38;26.76;30.29
65472;DHT22;52068;50.710;14.492;2023-03-13T06:38:04;26.45;30.79
65472;DHT22;52068;50.710;14.492;2023-03-13T06:40:29;26.18;31.18
65472;DHT22;52068;50.710;14.492;2023-03-13T06:42:54;25.84;31.85
65472;DHT22;52068;50.710;14.492;2023-03-13T06:45:19;25.58;32.31
65472;DHT22;52068;50.710;14.492;2023-03-13T06:47:45;25.32;32.69
65472;DHT22;52068;50.710;14.492;2023-03-13T06:50:10;25.14;33.11
65472;DHT22;52068;50.710;14.492;2023-03-13T06:52:35;25.08;33.38
65472;DHT22;52068;50.710;14.492;2023-03-13T06:55:02;25.22;33.35
65472;DHT22;52068;50.710;14.492;2023-03-13T06:57:27;25.45;32.94
65472;DHT22;52068;50.710;14.492;2023-03-13T06:59:53;25.82;32.47
65472;DHT22;52068;50.710;14.492;2023-03-13T07:02:18;26.18;31.97
65472;DHT22;52068;50.710;14.492;2023-03-13T07:04:43;26.38;31.68
65472;DHT22;52068;50.710;14.492;2023-03-13T07:07:10;26.47;31.44
65472;DHT22;52068;50.710;14.492;2023-03-13T07:09:35;26.45;31.50
65472;DHT22;52068;50.710;14.492;2023-03-13T07:12:01;26.35;31.62
65472;DHT22;52068;50.710;14.492;2023-03-13T07:14:27;26.25;31.72
65472;DHT22;52068;50.710;14.492;2023-03-13T07:16:52;26.08;31.90
65472;DHT22;52068;50.710;14.492;2023-03-13T07:19:18;25.92;32.19
65472;DHT22;52068;50.710;14.492;2023-03-13T07:21:43;25.70;32.61
65472;DHT22;52068;50.710;14.492;2023-03-13T07:24:08;25.50;32.98
65472;DHT22;52068;50.710;14.492;2023-03-13T07:26:33;25.29;33.11
65472;DHT22;52068;50.710;14.492;2023-03-13T07:28:59;25.12;33.31
65472;DHT22;52068;50.710;14.492;2023-03-13T07:31:24;24.95;33.77
65472;DHT22;52068;50.710;14.492;2023-03-13T07:33:49;24.77;34.02
65472;DHT22;52068;50.710;14.492;2023-03-13T07:36:17;24.60;34.40
65472;DHT22;52068;50.710;14.492;2023-03-13T07:38:42;24.44;34.51
65472;DHT22;52068;50.710;14.492;2023-03-13T07:41:09;24.37;34.75
65472;DHT22;52068;50.710;14.492;2023-03-13T07:43:35;24.63;34.44
65472;DHT22;52068;50.710;14.492;2023-03-13T07:46:01;25.05;33.89
65472;DHT22;52068;50.710;14.492;2023-03-13T07:48:28;25.55;33.00
65472;DHT22;52068;50.710;14.492;2023-03-13T07:50:54;26.04;32.19
65472;DHT22;52068;50.710;14.492;2023-03-13T07:53:19;26.38;31.62
65472;DHT22;52068;50.710;14.492;2023-03-13T07:56:01;26.62;31.25
65472;DHT22;52068;50.710;14.492;2023-03-13T07:58:31;26.67;31.19
65472;DHT22;52068;50.710;14.492;2023-03-13T08:00:56;26.61;31.20
65472;DHT22;52068;50.710;14.492;2023-03-13T08:03:22;26.43;31.50
65472;DHT22;52068;50.710;14.492;2023-03-13T08:05:55;26.25;31.71
65472;DHT22;52068;50.710;14.492;2023-03-13T08:08:21;26.13;31.92
65472;DHT22;52068;50.710;14.492;2023-03-13T08:10:46;25.97;32.06
65472;DHT22;52068;50.710;14.492;2023-03-13T08:13:11;25.80;32.38
65472;DHT22;52068;50.710;14.492;2023-03-13T08:15:37;25.62;32.73
65472;DHT22;52068;50.710;14.492;2023-03-13T08:18:02;25.41;33.03
65472;DHT22;52068;50.710;14.492;2023-03-13T08:20:27;25.24;33.38
65472;DHT22;52068;50.710;14.492;2023-03-13T08:22:53;25.05;33.70
65472;DHT22;52068;50.710;14.492;2023-03-13T08:25:19;24.91;33.89
65472;DHT22;52068;50.710;14.492;2023-03-13T08:27:44;24.75;34.12
65472;DHT22;52068;50.710;14.492;2023-03-13T08:30:09;24.70;34.31
65472;DHT22;52068;50.710;14.492;2023-03-13T08:32:35;24.84;34.23
65472;DHT22;52068;50.710;14.492;2023-03-13T08:35:01;25.21;33.61
65472;DHT22;52068;50.710;14.492;2023-03-13T08:37:26;25.75;32.68
65472;DHT22;52068;50.710;14.492;2023-03-13T08:39:51;26.25;31.95
65472;DHT22;52068;50.710;14.492;2023-03-13T08:42:18;26.68;31.28
65472;DHT22;52068;50.710;14.492;2023-03-13T08:44:43;26.98;30.83
65472;DHT22;52068;50.710;14.492;2023-03-13T08:47:08;27.09;30.60
65472;DHT22;52068;50.710;14.492;2023-03-13T08:49:34;27.09;30.66
65472;DHT22;52068;50.710;14.492;2023-03-13T08:51:59;26.99;30.83
65472;DHT22;52068;50.710;14.492;2023-03-13T08:54:25;26.85;31.04
65472;DHT22;52068;50.710;14.492;2023-03-13T08:56:50;26.76;31.18
65472;DHT22;52068;50.710;14.492;2023-03-13T08:59:15;26.59;31.41
65472;DHT22;52068;50.710;14.492;2023-03-13T09:01:40;26.43;31.76
65472;DHT22;52068;50.710;14.492;2023-03-13T09:04:06;26.17;32.09
65472;DHT22;52068;50.710;14.492;2023-03-13T09:06:35;25.94;32.48
65472;DHT22;52068;50.710;14.492;2023-03-13T09:09:02;25.69;32.93
65472;DHT22;52068;50.710;14.492;2023-03-13T09:11:27;25.43;33.32
65472;DHT22;52068;50.710;14.492;2023-03-13T09:13:53;25.24;33.73
65472;DHT22;52068;50.710;14.492;2023-03-13T09:16:20;25.08;34.01
65472;DHT22;52068;50.710;14.492;2023-03-13T09:18:45;24.95;34.24
65472;DHT22;52068;50.710;14.492;2023-03-13T09:21:12;24.84;34.48
65472;DHT22;52068;50.710;14.492;2023-03-13T09:23:38;24.96;34.31
65472;DHT22;52068;50.710;14.492;2023-03-13T09:26:03;25.32;33.75
65472;DHT22;52068;50.710;14.492;2023-03-13T09:28:29;25.80;32.96
65472;DHT22;52068;50.710;14.492;2023-03-13T09:30:54;26.27;32.25
65472;DHT22;52068;50.710;14.492;2023-03-13T09:33:20;26.64;31.58
65472;DHT22;52068;50.710;14.492;2023-03-13T09:35:47;26.85;31.29
65472;DHT22;52068;50.710;14.492;2023-03-13T09:38:18;26.94;31.21
65472;DHT22;52068;50.710;14.492;2023-03-13T09:40:44;26.88;31.17
65472;DHT22;52068;50.710;14.492;2023-03-13T09:45:55;26.56;31.64
65472;DHT22;52068;50.710;14.492;2023-03-13T09:50:58;26.17;32.23
65472;DHT22;52068;50.710;14.492;2023-03-13T09:53:38;25.96;32.51
65472;DHT22;52068;50.710;14.492;2023-03-13T09:56:09;25.73;32.95
65472;DHT22;52068;50.710;14.492;2023-03-13T09:58:36;25.52;33.39
65472;DHT22;52068;50.710;14.492;2023-03-13T10:01:03;25.29;33.73
65472;DHT22;52068;50.710;14.492;2023-03-13T10:03:38;25.10;34.04
65472;DHT22;52068;50.710;14.492;2023-03-13T10:06:09;24.94;34.38
65472;DHT22;52068;50.710;14.492;2023-03-13T10:08:35;24.80;34.72
65472;DHT22;52068;50.710;14.492;2023-03-13T10:16:21;25.50;33.75
65472;DHT22;52068;50.710;14.492;2023-03-13T10:18:53;26.06;32.81
65472;DHT22;52068;50.710;14.492;2023-03-13T10:21:20;26.64;31.79
65472;DHT22;52068;50.710;14.492;2023-03-13T10:26:18;27.43;30.52
65472;DHT22;52068;50.710;14.492;2023-03-13T10:28:45;27.56;30.30
65472;DHT22;52068;50.710;14.492;2023-03-13T10:31:12;27.57;30.23
65472;DHT22;52068;50.710;14.492;2023-03-13T10:33:40;27.49;30.34
65472;DHT22;52068;50.710;14.492;2023-03-13T10:36:10;27.35;30.45
65472;DHT22;52068;50.710;14.492;2023-03-13T10:38:49;27.17;30.68
65472;DHT22;52068;50.710;14.492;2023-03-13T10:41:25;26.92;31.07
65472;DHT22;52068;50.710;14.492;2023-03-13T10:43:52;26.64;31.49
65472;DHT22;52068;50.710;14.492;2023-03-13T10:46:27;26.40;31.87
65472;DHT22;52068;50.710;14.492;2023-03-13T10:48:54;26.16;32.26
65472;DHT22;52068;50.710;14.492;2023-03-13T10:51:23;25.87;32.69
65472;DHT22;52068;50.710;14.492;2023-03-13T10:53:49;25.67;33.19
65472;DHT22;52068;50.710;14.492;2023-03-13T10:56:18;25.41;33.65
65472;DHT22;52068;50.710;14.492;2023-03-13T10:58:48;25.21;34.09
65472;DHT22;52068;50.710;14.492;2023-03-13T11:01:15;25.04;34.41
65472;DHT22;52068;50.710;14.492;2023-03-13T11:03:41;24.98;34.56
65472;DHT22;52068;50.710;14.492;2023-03-13T11:06:14;25.21;34.34
65472;DHT22;52068;50.710;14.492;2023-03-13T11:08:46;25.76;33.52
65472;DHT22;52068;50.710;14.492;2023-03-13T11:11:18;26.35;32.55
65472;DHT22;52068;50.710;14.492;2023-03-13T11:13:44;27.00;31.53
65472;DHT22;52068;50.710;14.492;2023-03-13T11:18:40;27.83;30.36
65472;DHT22;52068;50.710;14.492;2023-03-13T11:21:07;27.98;30.19
65472;DHT22;52068;50.710;14.492;2023-03-13T11:23:39;27.98;30.29
65472;DHT22;52068;50.710;14.492;2023-03-13T11:26:22;27.90;30.36
65472;DHT22;52068;50.710;14.492;2023-03-13T11:38:40;26.85;31.93
65472;DHT22;52068;50.710;14.492;2023-03-13T11:43:38;26.38;32.70
65472;DHT22;52068;50.710;14.492;2023-03-13T11:48:42;25.92;33.55
65472;DHT22;52068;50.710;14.492;2023-03-13T11:51:14;25.73;33.83
65472;DHT22;52068;50.710;14.492;2023-03-13T11:56:24;25.41;34.47
65472;DHT22;52068;50.710;14.492;2023-03-13T12:01:26;26.04;33.61
65472;DHT22;52068;50.710;14.492;2023-03-13T12:03:54;26.56;32.74
65472;DHT22;52068;50.710;14.492;2023-03-13T12:09:05;27.60;31.21
65472;DHT22;52068;50.710;14.492;2023-03-13T12:14:00;27.97;30.62
65472;DHT22;52068;50.710;14.492;2023-03-13T12:16:47;28.00;30.59
65472;DHT22;52068;50.710;14.492;2023-03-13T12:19:15;27.85;30.72
65472;DHT22;52068;50.710;14.492;2023-03-13T12:21:46;27.67;30.96
65472;DHT22;52068;50.710;14.492;2023-03-13T12:26:43;27.15;31.67
65472;DHT22;52068;50.710;14.492;2023-03-13T12:31:56;26.67;32.41
65472;DHT22;52068;50.710;14.492;2023-03-13T12:34:58;26.45;32.73
65472;DHT22;52068;50.710;14.492;2023-03-13T12:37:27;26.16;33.23
65472;DHT22;52068;50.710;14.492;2023-03-13T12:39:59;25.93;33.64
65472;DHT22;52068;50.710;14.492;2023-03-13T12:45:04;25.47;34.35
65472;DHT22;52068;50.710;14.492;2023-03-13T12:47:31;25.32;34.66
65472;DHT22;52068;50.710;14.492;2023-03-13T12:50:10;25.36;34.55
65472;DHT22;52068;50.710;14.492;2023-03-13T12:52:49;25.83;33.92
65472;DHT22;52068;50.710;14.492;2023-03-13T12:57:55;27.10;31.83
65472;DHT22;52068;50.710;14.492;2023-03-13T13:00:28;27.73;30.86
65472;DHT22;52068;50.710;14.492;2023-03-13T13:03:15;28.08;30.41
65472;DHT22;52068;50.710;14.492;2023-03-13T13:06:00;28.32;30.02
65472;DHT22;52068;50.710;14.492;2023-03-13T13:08:27;28.34;30.02
65472;DHT22;52068;50.710;14.492;2023-03-13T13:11:15;28.21;30.15
65472;DHT22;52068;50.710;14.492;2023-03-13T13:13:40;28.05;30.45
65472;DHT22;52068;50.710;14.492;2023-03-13T13:16:06;27.90;30.69
65472;DHT22;52068;50.710;14.492;2023-03-13T13:18:35;27.68;31.16
65472;DHT22;52068;50.710;14.492;2023-03-13T13:23:38;27.22;31.90
65472;DHT22;52068;50.710;14.492;2023-03-13T13:28:57;26.68;32.85
65472;DHT22;52068;50.710;14.492;2023-03-13T13:34:06;26.08;33.92
65472;DHT22;52068;50.710;14.492;2023-03-13T13:36:39;25.83;34.35
65472;DHT22;52068;50.710;14.492;2023-03-13T13:39:17;25.66;34.66
65472;DHT22;52068;50.710;14.492;2023-03-13T13:41:45;25.45;35.06
65472;DHT22;52068;50.710;14.492;2023-03-13T13:44:13;25.53;35.01
65472;DHT22;52068;50.710;14.492;2023-03-13T13:46:43;25.89;34.46
65472;DHT22;52068;50.710;14.492;2023-03-13T13:49:18;26.38;33.71
65472;DHT22;52068;50.710;14.492;2023-03-13T13:54:32;27.56;31.61
65472;DHT22;52068;50.710;14.492;2023-03-13T13:57:06;27.93;31.06
65472;DHT22;52068;50.710;14.492;2023-03-13T13:59:42;28.07;30.80
65472;DHT22;52068;50.710;14.492;2023-03-13T14:04:36;27.94;30.89
65472;DHT22;52068;50.710;14.492;2023-03-13T14:07:03;27.80;31.10
65472;DHT22;52068;50.710;14.492;2023-03-13T14:11:57;27.37;31.75
65472;DHT22;52068;50.710;14.492;2023-03-13T14:14:22;27.16;32.07
65472;DHT22;52068;50.710;14.492;2023-03-13T14:16:48;26.94;32.40
65472;DHT22;52068;50.710;14.492;2023-03-13T14:19:27;26.71;32.79
65472;DHT22;52068;50.710;14.492;2023-03-13T14:21:58;26.48;33.22
65472;DHT22;52068;50.710;14.492;2023-03-13T14:24:24;26.30;33.58
65472;DHT22;52068;50.710;14.492;2023-03-13T14:26:49;26.12;33.94
65472;DHT22;52068;50.710;14.492;2023-03-13T14:29:15;25.97;34.24
65472;DHT22;52068;50.710;14.492;2023-03-13T14:31:41;25.83;34.51
65472;DHT22;52068;50.710;14.492;2023-03-13T14:34:14;25.69;34.78
65472;DHT22;52068;50.710;14.492;2023-03-13T14:36:49;25.62;34.95
65472;DHT22;52068;50.710;14.492;2023-03-13T14:39:57;25.82;34.68
65472;DHT22;52068;50.710;14.492;2023-03-13T14:44:29;26.69;33.34
65472;DHT22;52068;50.710;14.492;2023-03-13T14:46:56;27.07;32.64
65472;DHT22;52068;50.710;14.492;2023-03-13T14:49:23;27.29;32.29
65472;DHT22;52068;50.710;14.492;2023-03-13T14:51:57;27.39;32.09
65472;DHT22;52068;50.710;14.492;2023-03-13T14:57:01;27.27;32.27
65472;DHT22;52068;50.710;14.492;2023-03-13T14:59:26;27.15;32.45
65472;DHT22;52068;50.710;14.492;2023-03-13T15:02:02;26.96;32.71
65472;DHT22;52068;50.710;14.492;2023-03-13T15:07:13;26.58;33.38
65472;DHT22;52068;50.710;14.492;2023-03-13T15:09:41;26.40;33.65
65472;DHT22;52068;50.710;14.492;2023-03-13T15:12:13;26.24;33.87
65472;DHT22;52068;50.710;14.492;2023-03-13T15:14:40;26.04;34.14
65472;DHT22;52068;50.710;14.492;2023-03-13T15:17:24;25.93;34.36
65472;DHT22;52068;50.710;14.492;2023-03-13T15:19:54;25.75;34.63
65472;DHT22;52068;50.710;14.492;2023-03-13T15:22:26;25.62;34.91
65472;DHT22;52068;50.710;14.492;2023-03-13T15:24:52;25.45;35.09
65472;DHT22;52068;50.710;14.492;2023-03-13T15:27:18;25.32;35.29
65472;DHT22;52068;50.710;14.492;2023-03-13T15:29:44;25.25;35.48
65472;DHT22;52068;50.710;14.492;2023-03-13T15:32:11;25.22;35.56
65472;DHT22;52068;50.710;14.492;2023-03-13T15:34:38;25.41;35.29
65472;DHT22;52068;50.710;14.492;2023-03-13T15:37:04;25.75;34.87
65472;DHT22;52068;50.710;14.492;2023-03-13T15:39:29;26.14;34.27
65472;DHT22;52068;50.710;14.492;2023-03-13T15:41:54;26.52;33.74
65472;DHT22;52068;50.710;14.492;2023-03-13T15:44:19;26.74;33.19
65472;DHT22;52068;50.710;14.492;2023-03-13T15:46:45;26.85;32.99
65472;DHT22;52068;50.710;14.492;2023-03-13T15:49:12;26.81;32.99
65472;DHT22;52068;50.710;14.492;2023-03-13T15:51:37;26.69;33.14
65472;DHT22;52068;50.710;14.492;2023-03-13T15:54:03;26.52;33.45
65472;DHT22;52068;50.710;14.492;2023-03-13T15:56:29;26.43;33.56
65472;DHT22;52068;50.710;14.492;2023-03-13T15:58:57;26.28;33.79
65472;DHT22;52068;50.710;14.492;2023-03-13T16:01:23;26.12;34.08
65472;DHT22;52068;50.710;14.492;2023-03-13T16:03:48;25.94;34.32
65472;DHT22;52068;50.710;14.492;2023-03-13T16:06:18;25.79;34.57
65472;DHT22;52068;50.710;14.492;2023-03-13T16:08:44;25.66;34.77
65472;DHT22;52068;50.710;14.492;2023-03-13T16:11:14;25.46;35.00
65472;DHT22;52068;50.710;14.492;2023-03-13T16:13:39;25.26;35.29
65472;DHT22;52068;50.710;14.492;2023-03-13T16:16:10;25.11;35.48
65472;DHT22;52068;50.710;14.492;2023-03-13T16:18:38;24.94;35.85
65472;DHT22;52068;50.710;14.492;2023-03-13T16:21:04;24.94;35.97
65472;DHT22;52068;50.710;14.492;2023-03-13T16:23:29;25.18;35.60
65472;DHT22;52068;50.710;14.492;2023-03-13T16:25:54;25.75;34.70
65472;DHT22;52068;50.710;14.492;2023-03-13T16:28:19;26.31;33.81
65472;DHT22;52068;50.710;14.492;2023-03-13T16:30:45;26.81;32.88
65472;DHT22;52068;50.710;14.492;2023-03-13T16:33:13;27.23;32.15
65472;DHT22;52068;50.710;14.492;2023-03-13T16:35:38;27.50;31.65
65472;DHT22;52068;50.710;14.492;2023-03-13T16:38:04;27.60;31.57